Terminal Aerodrome Forecast
Issued by NWS Grand Forks, ND

Home | Current Version | Previous Version | Graphics & Text | Print | Product List | Glossary On
Versions: 1 2 3 4 5 6 7 8 9 10 11 12 13 14 15 16 17 18 19 20
000
FTUS43 KFGF 291720
TAFGFK
TAF
KGFK 291720Z 2918/3018 31010KT P6SM SCT020 BKN080
     FM291900 31010KT P6SM SCT250
     FM292000 30010G17KT P6SM FEW250
     FM292300 23005KT P6SM SCT250=

USA.gov is the U.S. government's official web portal to all federal, state and local government web resources and services.